createdAt,value
2023-02-11T00:00:39.877Z,0.00
2023-02-11T00:01:39.891Z,0.00
2023-02-11T00:02:39.850Z,0.00
2023-02-11T00:03:39.925Z,0.00
2023-02-11T00:04:39.826Z,0.00
2023-02-11T00:05:39.830Z,0.00
2023-02-11T00:06:39.810Z,0.00
2023-02-11T00:07:39.810Z,0.00
2023-02-11T00:08:39.790Z,0.00
2023-02-11T00:09:39.780Z,0.00
2023-02-11T00:10:39.765Z,0.00
2023-02-11T00:11:39.803Z,0.00
2023-02-11T00:12:39.743Z,0.00
2023-02-11T00:13:39.740Z,0.00
2023-02-11T00:14:39.712Z,0.00
2023-02-11T00:15:39.719Z,0.00
2023-02-11T00:16:39.760Z,0.00
2023-02-11T00:17:39.706Z,0.00
2023-02-11T00:18:39.679Z,0.00
2023-02-11T00:19:39.680Z,0.00
2023-02-11T00:20:39.662Z,0.00
2023-02-11T00:21:39.701Z,0.00
2023-02-11T00:22:39.679Z,0.00
2023-02-11T00:23:39.648Z,0.00
2023-02-11T00:24:39.625Z,0.00
2023-02-11T00:25:39.606Z,0.00
2023-02-11T00:26:39.595Z,0.00
2023-02-11T00:27:39.613Z,0.00
2023-02-11T00:28:39.567Z,0.00
2023-02-11T00:29:39.614Z,0.00
2023-02-11T00:30:39.762Z,0.00
2023-02-11T00:31:39.793Z,0.00
2023-02-11T00:32:39.533Z,0.00
2023-02-11T00:33:39.533Z,0.00
2023-02-11T00:34:39.517Z,0.00
2023-02-11T00:35:39.499Z,0.00
2023-02-11T00:36:39.483Z,0.00
2023-02-11T00:37:39.479Z,0.00
2023-02-11T00:38:39.476Z,0.00
2023-02-11T00:39:39.464Z,0.00
2023-02-11T00:40:39.442Z,0.00
2023-02-11T00:41:39.447Z,0.00
2023-02-11T00:42:39.424Z,0.00
2023-02-11T00:43:39.440Z,0.00
2023-02-11T00:44:39.393Z,0.00
2023-02-11T00:45:39.400Z,0.00
2023-02-11T00:46:39.488Z,0.00
2023-02-11T00:47:39.374Z,0.00
2023-02-11T00:48:39.409Z,0.00
2023-02-11T00:49:39.368Z,0.00
2023-02-11T00:50:39.323Z,0.00
2023-02-11T00:51:39.339Z,0.00
2023-02-11T00:52:39.318Z,0.00
2023-02-11T00:53:39.300Z,0.00
2023-02-11T00:54:39.309Z,0.00
2023-02-11T00:55:39.291Z,0.00
2023-02-11T00:56:39.270Z,0.00
2023-02-11T00:57:39.270Z,0.00
2023-02-11T00:58:39.237Z,0.00
2023-02-11T00:59:39.279Z,0.00
2023-02-11T01:00:39.238Z,0.00
2023-02-11T01:01:39.230Z,0.00
2023-02-11T01:02:39.220Z,0.00
2023-02-11T01:03:39.202Z,0.00
2023-02-11T01:04:39.192Z,0.00
2023-02-11T01:05:39.329Z,0.00
2023-02-11T01:06:39.159Z,0.00
2023-02-11T01:07:39.179Z,0.00
2023-02-11T01:08:39.150Z,0.00
2023-02-11T01:09:39.135Z,0.00
2023-02-11T01:10:39.135Z,0.00
2023-02-11T01:11:39.134Z,0.00
2023-02-11T01:12:39.105Z,0.00
2023-02-11T01:13:39.099Z,0.00
2023-02-11T01:14:39.079Z,0.00
2023-02-11T01:15:39.117Z,0.00
2023-02-11T01:16:39.076Z,0.00
2023-02-11T01:17:39.056Z,0.00
2023-02-11T01:18:39.052Z,0.00
2023-02-11T01:19:39.046Z,0.00
2023-02-11T01:20:39.020Z,0.00
2023-02-11T01:21:39.017Z,0.00
2023-02-11T01:22:39.004Z,0.00
2023-02-11T01:23:38.994Z,0.00
2023-02-11T01:24:39.000Z,0.00
2023-02-11T01:25:38.959Z,0.00
2023-02-11T01:26:38.965Z,0.00
2023-02-11T01:27:38.966Z,0.00
2023-02-11T01:28:38.977Z,0.00
2023-02-11T01:29:38.959Z,0.00
2023-02-11T01:30:38.900Z,0.00
2023-02-11T01:31:39.096Z,0.00
2023-02-11T01:32:38.885Z,0.00
2023-02-11T01:33:38.877Z,0.00
2023-02-11T01:34:38.868Z,0.00
2023-02-11T01:35:38.913Z,0.00
2023-02-11T01:36:38.844Z,0.00
2023-02-11T01:37:38.846Z,0.00
2023-02-11T01:38:38.818Z,0.00
2023-02-11T01:39:38.825Z,0.00
2023-02-11T01:40:38.811Z,0.00
2023-02-11T01:41:38.809Z,0.00
2023-02-11T01:42:38.782Z,0.00
2023-02-11T01:43:38.785Z,0.00
2023-02-11T01:44:38.755Z,0.00
2023-02-11T01:45:38.756Z,0.00
2023-02-11T01:46:38.839Z,0.00
2023-02-11T01:47:38.745Z,0.00
2023-02-11T01:48:38.721Z,0.00
2023-02-11T01:49:38.724Z,0.00
2023-02-11T01:50:39.641Z,0.00
2023-02-11T01:51:38.728Z,0.00
2023-02-11T01:52:38.685Z,0.00
2023-02-11T01:53:38.650Z,0.00
2023-02-11T01:54:38.653Z,0.00
2023-02-11T01:55:38.693Z,0.00
2023-02-11T01:56:38.637Z,0.00
2023-02-11T01:57:38.623Z,0.00
2023-02-11T01:58:38.609Z,0.00
2023-02-11T01:59:38.625Z,0.00
2023-02-11T02:00:38.661Z,0.00
2023-02-11T02:01:38.665Z,0.00
2023-02-11T02:02:38.591Z,0.00
2023-02-11T02:03:38.553Z,0.00
2023-02-11T02:04:38.549Z,0.00
2023-02-11T02:05:38.539Z,0.00
2023-02-11T02:06:38.572Z,0.00
2023-02-11T02:07:38.515Z,0.00
2023-02-11T02:08:38.515Z,0.00
2023-02-11T02:09:38.513Z,0.00
2023-02-11T02:10:38.483Z,0.00
2023-02-11T02:11:38.474Z,0.00
2023-02-11T02:12:38.484Z,0.00
2023-02-11T02:13:38.444Z,0.00
2023-02-11T02:14:38.434Z,0.00
2023-02-11T02:15:38.425Z,0.00
2023-02-11T02:16:38.529Z,0.00
2023-02-11T02:17:38.404Z,0.00
2023-02-11T02:18:38.399Z,0.00
2023-02-11T02:19:38.390Z,0.00
2023-02-11T02:20:38.374Z,0.00
2023-02-11T02:21:38.370Z,0.00
2023-02-11T02:22:38.410Z,0.00
2023-02-11T02:23:38.335Z,0.00
2023-02-11T02:24:38.335Z,0.00
2023-02-11T02:25:38.308Z,0.00
2023-02-11T02:26:38.332Z,0.00
2023-02-11T02:27:38.312Z,0.00
2023-02-11T02:28:38.316Z,0.00
2023-02-11T02:29:38.277Z,0.00
2023-02-11T02:30:38.265Z,0.00
2023-02-11T02:31:38.427Z,0.00
2023-02-11T02:32:38.265Z,0.00
2023-02-11T02:33:38.217Z,0.00
2023-02-11T02:34:38.223Z,0.00
2023-02-11T02:35:38.291Z,0.00
2023-02-11T02:36:38.221Z,0.00
2023-02-11T02:37:38.196Z,0.00
2023-02-11T02:38:38.172Z,0.00
2023-02-11T02:39:38.168Z,0.00
2023-02-11T02:40:38.166Z,0.00
2023-02-11T02:41:38.136Z,0.00
2023-02-11T02:42:38.159Z,0.00
2023-02-11T02:43:38.126Z,0.00
2023-02-11T02:44:38.113Z,0.00
2023-02-11T02:45:38.099Z,0.00
2023-02-11T02:46:38.189Z,0.00
2023-02-11T02:47:38.114Z,0.00
2023-02-11T02:48:38.077Z,0.00
2023-02-11T02:49:38.055Z,0.00
2023-02-11T02:50:39.022Z,0.00
2023-02-11T02:51:38.067Z,0.00
2023-02-11T02:52:38.131Z,0.00
2023-02-11T02:53:38.047Z,0.00
2023-02-11T02:54:38.026Z,0.00
2023-02-11T02:55:38.015Z,0.00
2023-02-11T02:56:37.989Z,0.00
2023-02-11T02:57:38.005Z,0.00
2023-02-11T02:58:37.986Z,0.00
2023-02-11T02:59:37.960Z,0.00
2023-02-11T03:00:38.038Z,0.00
2023-02-11T03:01:37.925Z,0.00
2023-02-11T03:02:37.928Z,0.00
2023-02-11T03:03:37.975Z,0.00
2023-02-11T03:04:37.911Z,0.00
2023-02-11T03:05:37.892Z,0.00
2023-02-11T03:06:37.889Z,0.00
2023-02-11T03:07:37.868Z,0.00
2023-02-11T03:08:37.904Z,0.00
2023-02-11T03:09:37.839Z,0.00
2023-02-11T03:10:37.843Z,0.00
2023-02-11T03:11:37.832Z,0.00
2023-02-11T03:12:37.820Z,0.00
2023-02-11T03:13:37.830Z,0.00
2023-02-11T03:14:37.804Z,0.00
2023-02-11T03:15:37.792Z,0.00
2023-02-11T03:16:37.845Z,0.00
2023-02-11T03:17:37.754Z,0.00
2023-02-11T03:18:37.756Z,0.00
2023-02-11T03:19:37.760Z,0.00
2023-02-11T03:20:37.742Z,0.00
2023-02-11T03:21:37.719Z,0.00
2023-02-11T03:22:37.709Z,0.00
2023-02-11T03:23:37.704Z,0.00
2023-02-11T03:24:37.714Z,0.00
2023-02-11T03:25:37.714Z,0.00
2023-02-11T03:26:37.682Z,0.00
2023-02-11T03:27:37.677Z,0.00
2023-02-11T03:28:37.650Z,0.00
2023-02-11T03:29:37.676Z,0.00
2023-02-11T03:30:37.620Z,0.00
2023-02-11T03:31:37.771Z,0.00
2023-02-11T03:32:37.623Z,0.00
2023-02-11T03:33:37.580Z,0.00
2023-02-11T03:34:37.591Z,0.00
2023-02-11T03:35:37.595Z,0.00
2023-02-11T03:36:37.560Z,0.00
2023-02-11T03:37:37.713Z,0.00
2023-02-11T03:38:37.538Z,0.00
2023-02-11T03:39:37.537Z,0.00
2023-02-11T03:40:37.579Z,0.00
2023-02-11T03:41:37.506Z,0.00
2023-02-11T03:42:37.686Z,0.00
2023-02-11T03:43:37.499Z,0.00
2023-02-11T03:44:37.477Z,0.00
2023-02-11T03:45:37.475Z,0.00
2023-02-11T03:46:37.463Z,0.00
2023-02-11T03:47:37.462Z,0.00
2023-02-11T03:48:37.438Z,0.00
2023-02-11T03:49:37.421Z,0.00
2023-02-11T03:50:37.429Z,0.00
2023-02-11T03:51:37.432Z,0.00
2023-02-11T03:52:37.402Z,0.00
2023-02-11T03:53:37.436Z,0.00
2023-02-11T03:54:37.365Z,0.00
2023-02-11T03:55:37.366Z,0.00
2023-02-11T03:56:37.359Z,0.00
2023-02-11T03:57:37.328Z,0.00
2023-02-11T03:58:37.353Z,0.00
2023-02-11T03:59:37.315Z,0.00
2023-02-11T04:00:37.316Z,0.00
2023-02-11T04:01:37.315Z,0.00
2023-02-11T04:02:37.306Z,0.00
2023-02-11T04:03:37.273Z,0.00
2023-02-11T04:04:37.274Z,0.00
2023-02-11T04:05:37.260Z,0.00
2023-02-11T04:06:38.028Z,0.00
2023-02-11T04:07:37.259Z,0.00
2023-02-11T04:08:37.260Z,0.00
2023-02-11T04:09:37.215Z,0.00
2023-02-11T04:10:37.224Z,0.00
2023-02-11T04:11:37.192Z,0.00
2023-02-11T04:12:37.237Z,0.00
2023-02-11T04:13:37.164Z,0.00
2023-02-11T04:14:37.172Z,0.00
2023-02-11T04:15:37.145Z,0.00
2023-02-11T04:16:37.191Z,0.00
2023-02-11T04:17:37.112Z,0.00
2023-02-11T04:18:37.159Z,0.00
2023-02-11T04:19:37.102Z,0.00
2023-02-11T04:20:37.113Z,0.00
2023-02-11T04:21:37.079Z,0.00
2023-02-11T04:22:37.075Z,0.00
2023-02-11T04:23:37.095Z,0.00
2023-02-11T04:24:37.058Z,0.00
2023-02-11T04:25:37.039Z,0.00
2023-02-11T04:26:37.035Z,0.00
2023-02-11T04:27:37.040Z,0.00
2023-02-11T04:28:37.138Z,0.00
2023-02-11T04:29:37.036Z,0.00
2023-02-11T04:30:36.986Z,0.00
2023-02-11T04:31:36.991Z,0.00
2023-02-11T04:32:36.976Z,0.00
2023-02-11T04:33:36.950Z,0.00
2023-02-11T04:34:36.946Z,0.00
2023-02-11T04:35:36.938Z,0.00
2023-02-11T04:36:36.948Z,0.00
2023-02-11T04:37:36.903Z,0.00
2023-02-11T04:38:36.902Z,0.00
2023-02-11T04:39:36.935Z,0.00
2023-02-11T04:40:36.888Z,0.00
2023-02-11T04:41:36.857Z,0.00
2023-02-11T04:42:36.870Z,0.00
2023-02-11T04:43:36.851Z,0.00
2023-02-11T04:44:36.843Z,0.00
2023-02-11T04:45:36.868Z,0.00
2023-02-11T04:46:36.826Z,0.00
2023-02-11T04:47:36.821Z,0.00
2023-02-11T04:48:36.809Z,0.00
2023-02-11T04:49:36.781Z,0.00
2023-02-11T04:50:36.796Z,0.00
2023-02-11T04:51:36.761Z,0.00
2023-02-11T04:52:36.753Z,0.00
2023-02-11T04:53:36.758Z,0.00
2023-02-11T04:54:36.731Z,0.00
2023-02-11T04:55:36.787Z,0.00
2023-02-11T04:56:36.723Z,0.00
2023-02-11T04:57:36.685Z,0.00
2023-02-11T04:58:36.699Z,0.00
2023-02-11T04:59:36.683Z,0.00
2023-02-11T05:00:36.701Z,0.00
2023-02-11T05:01:36.679Z,0.00
2023-02-11T05:02:36.668Z,0.00
2023-02-11T05:03:36.649Z,0.00
2023-02-11T05:04:36.655Z,0.00
2023-02-11T05:05:36.629Z,0.00
2023-02-11T05:06:36.613Z,0.00
2023-02-11T05:07:36.620Z,0.00
2023-02-11T05:08:36.596Z,0.00
2023-02-11T05:09:36.560Z,0.00
2023-02-11T05:10:36.679Z,0.00
2023-02-11T05:11:36.569Z,0.00
2023-02-11T05:12:36.543Z,0.00
2023-02-11T05:13:36.537Z,0.00
2023-02-11T05:14:36.527Z,0.00
2023-02-11T05:15:36.507Z,0.00
2023-02-11T05:16:36.607Z,0.00
2023-02-11T05:17:36.476Z,0.00
2023-02-11T05:18:36.506Z,0.00
2023-02-11T05:19:36.463Z,0.00
2023-02-11T05:20:36.459Z,0.00
2023-02-11T05:21:36.444Z,0.00
2023-02-11T05:22:36.441Z,0.00
2023-02-11T05:23:36.422Z,0.00
2023-02-11T05:24:36.444Z,0.00
2023-02-11T05:25:36.388Z,0.00
2023-02-11T05:26:36.427Z,0.00
2023-02-11T05:27:36.388Z,0.00
2023-02-11T05:28:36.435Z,0.00
2023-02-11T05:29:36.399Z,0.00
2023-02-11T05:30:36.430Z,0.00
2023-02-11T05:31:36.337Z,0.00
2023-02-11T05:32:36.340Z,0.00
2023-02-11T05:33:36.310Z,0.00
2023-02-11T05:34:36.328Z,0.00
2023-02-11T05:35:36.325Z,0.00
2023-02-11T05:36:36.294Z,0.00
2023-02-11T05:37:36.398Z,0.00
2023-02-11T05:38:36.266Z,0.00
2023-02-11T05:39:36.258Z,0.00
2023-02-11T05:40:36.249Z,0.00
2023-02-11T05:41:36.246Z,0.00
2023-02-11T05:42:36.229Z,0.00
2023-02-11T05:43:36.318Z,0.00
2023-02-11T05:44:36.209Z,0.00
2023-02-11T05:45:36.188Z,0.00
2023-02-11T05:46:36.220Z,0.00
2023-02-11T05:47:36.170Z,0.00
2023-02-11T05:48:36.179Z,0.00
2023-02-11T05:49:36.135Z,0.00
2023-02-11T05:50:36.147Z,0.00
2023-02-11T05:51:36.174Z,0.00
2023-02-11T05:52:36.128Z,0.00
2023-02-11T05:53:36.109Z,0.00
2023-02-11T05:54:36.097Z,0.00
2023-02-11T05:55:36.090Z,0.00
2023-02-11T05:56:36.112Z,0.00
2023-02-11T05:57:36.067Z,0.00
2023-02-11T05:58:36.059Z,0.00
2023-02-11T05:59:36.039Z,0.00
2023-02-11T06:00:36.049Z,0.00
2023-02-11T06:01:36.108Z,0.00
2023-02-11T06:02:36.120Z,0.00
2023-02-11T06:03:36.060Z,0.00
2023-02-11T06:04:36.003Z,0.00
2023-02-11T06:05:36.050Z,0.00
2023-02-11T06:06:35.993Z,0.00
2023-02-11T06:07:35.953Z,0.00
2023-02-11T06:08:38.166Z,0.00
2023-02-11T06:09:35.938Z,0.00
2023-02-11T06:10:35.922Z,0.00
2023-02-11T06:11:35.921Z,0.00
2023-02-11T06:12:35.903Z,0.00
2023-02-11T06:13:35.908Z,0.00
2023-02-11T06:14:35.916Z,0.00
2023-02-11T06:15:35.946Z,0.00
2023-02-11T06:16:35.883Z,0.00
2023-02-11T06:17:35.912Z,0.00
2023-02-11T06:18:35.846Z,0.00
2023-02-11T06:19:35.832Z,0.00
2023-02-11T06:20:35.801Z,0.00
2023-02-11T06:21:43.467Z,0.00
2023-02-11T06:22:35.818Z,0.00
2023-02-11T06:23:35.793Z,0.00
2023-02-11T06:24:54.972Z,0.00
2023-02-11T06:25:35.790Z,0.00
2023-02-11T06:26:35.774Z,0.00
2023-02-11T06:27:35.761Z,0.00
2023-02-11T06:28:35.825Z,1.00
2023-02-11T06:29:35.731Z,0.00
2023-02-11T06:30:35.714Z,0.00
2023-02-11T06:31:35.906Z,0.00
2023-02-11T06:32:45.223Z,0.00
2023-02-11T06:33:35.727Z,1.00
2023-02-11T06:34:35.626Z,1.00
2023-02-11T06:35:35.658Z,0.00
2023-02-11T06:36:35.609Z,2.00
2023-02-11T06:37:35.633Z,1.00
2023-02-11T06:38:35.571Z,1.00
2023-02-11T06:39:35.567Z,1.00
2023-02-11T06:40:35.552Z,2.00
2023-02-11T06:41:35.553Z,4.00
2023-02-11T06:42:35.564Z,8.00
2023-02-11T06:43:35.521Z,5.00
2023-02-11T06:44:35.507Z,5.00
2023-02-11T06:45:35.505Z,2.00
2023-02-11T06:46:35.544Z,4.00
2023-02-11T06:47:35.519Z,8.00
2023-02-11T06:48:35.517Z,9.00
2023-02-11T06:49:35.458Z,10.00
2023-02-11T06:50:35.450Z,12.00
2023-02-11T06:51:35.440Z,11.00
2023-02-11T06:52:35.557Z,11.00
2023-02-11T06:53:35.443Z,14.00
2023-02-11T06:54:35.452Z,12.00
2023-02-11T06:55:35.400Z,17.00
2023-02-11T06:56:35.393Z,23.00
2023-02-11T06:57:35.384Z,20.00
2023-02-11T06:58:35.363Z,22.00
2023-02-11T06:59:35.350Z,22.00
2023-02-11T07:00:35.353Z,22.00
2023-02-11T07:01:35.409Z,28.00
2023-02-11T07:02:35.328Z,32.00
2023-02-11T07:03:35.307Z,32.00
2023-02-11T07:04:35.321Z,22.00
2023-02-11T07:05:35.314Z,25.00
2023-02-11T07:06:35.277Z,35.00
2023-02-11T07:07:35.278Z,41.00
2023-02-11T07:08:35.316Z,42.00
2023-02-11T07:09:35.331Z,41.00
2023-02-11T07:10:35.263Z,39.00
2023-02-11T07:11:35.273Z,42.00
2023-02-11T07:12:35.211Z,44.00
2023-02-11T07:13:35.213Z,50.00
2023-02-11T07:14:35.210Z,60.00
2023-02-11T07:15:35.274Z,54.00
2023-02-11T07:16:35.422Z,53.00
2023-02-11T07:17:35.155Z,60.00
2023-02-11T07:18:35.160Z,50.00
2023-02-11T07:19:35.470Z,75.00
2023-02-11T07:20:35.118Z,84.00
2023-02-11T07:21:35.126Z,90.00
2023-02-11T07:22:35.108Z,78.00
2023-02-11T07:23:35.102Z,80.00
2023-02-11T07:24:35.117Z,88.00
2023-02-11T07:25:35.087Z,89.00
2023-02-11T07:26:35.088Z,101.00
2023-02-11T07:27:35.070Z,135.00
2023-02-11T07:28:35.080Z,144.00
2023-02-11T07:29:35.055Z,124.00
2023-02-11T07:30:35.029Z,137.00
2023-02-11T07:31:35.176Z,135.00
2023-02-11T07:32:35.004Z,118.00
2023-02-11T07:33:34.986Z,129.00
2023-02-11T07:34:35.026Z,139.00
2023-02-11T07:35:34.995Z,133.00
2023-02-11T07:36:34.948Z,149.00
2023-02-11T07:37:34.972Z,175.00
2023-02-11T07:38:34.941Z,160.00
2023-02-11T07:39:34.931Z,161.00
2023-02-11T07:40:34.949Z,167.00
2023-02-11T07:41:37.698Z,167.00
2023-02-11T07:42:34.889Z,182.00
2023-02-11T07:43:34.881Z,172.00
2023-02-11T07:44:34.872Z,177.00
2023-02-11T07:45:34.863Z,181.00
2023-02-11T07:46:34.903Z,181.00
2023-02-11T07:47:34.858Z,210.00
2023-02-11T07:48:34.849Z,225.00
2023-02-11T07:49:34.824Z,222.00
2023-02-11T07:50:34.795Z,230.00
2023-02-11T07:51:34.805Z,242.00
2023-02-11T07:52:42.576Z,231.00
2023-02-11T07:53:34.778Z,266.00
2023-02-11T07:54:34.788Z,278.00
2023-02-11T07:55:34.793Z,281.00
2023-02-11T07:56:34.739Z,270.00
2023-02-11T07:57:34.926Z,234.00
2023-02-11T07:58:34.725Z,229.00
2023-02-11T07:59:34.730Z,239.00
2023-02-11T08:00:34.886Z,243.00
2023-02-11T08:01:34.693Z,227.00
2023-02-11T08:02:34.736Z,233.00
2023-02-11T08:03:34.695Z,257.00
2023-02-11T08:04:34.651Z,251.00
2023-02-11T08:05:34.664Z,253.00
2023-02-11T08:06:34.643Z,261.00
2023-02-11T08:07:34.624Z,275.00
2023-02-11T08:08:34.601Z,325.00
2023-02-11T08:09:34.860Z,309.00
2023-02-11T08:10:34.603Z,290.00
2023-02-11T08:11:34.657Z,305.00
2023-02-11T08:12:34.584Z,304.00
2023-02-11T08:13:34.575Z,310.00
2023-02-11T08:14:34.561Z,317.00
2023-02-11T08:15:34.551Z,328.00
2023-02-11T08:16:34.620Z,304.00
2023-02-11T08:17:34.515Z,311.00
2023-02-11T08:18:34.490Z,324.00
2023-02-11T08:19:35.305Z,353.00
2023-02-11T08:20:34.497Z,348.00
2023-02-11T08:21:34.504Z,368.00
2023-02-11T08:22:34.474Z,425.00
2023-02-11T08:23:34.466Z,468.00
2023-02-11T08:24:34.444Z,434.00
2023-02-11T08:25:34.423Z,451.00
2023-02-11T08:26:34.419Z,415.00
2023-02-11T08:27:34.407Z,396.00
2023-02-11T08:28:34.525Z,412.00
2023-02-11T08:29:34.390Z,414.00
2023-02-11T08:30:34.381Z,428.00
2023-02-11T08:31:34.501Z,404.00
2023-02-11T08:32:34.410Z,419.00
2023-02-11T08:33:34.464Z,432.00
2023-02-11T08:34:34.326Z,461.00
2023-02-11T08:35:34.326Z,472.00
2023-02-11T08:36:34.324Z,474.00
2023-02-11T08:37:34.293Z,541.00
2023-02-11T08:38:34.278Z,516.00
2023-02-11T08:39:34.277Z,574.00
2023-02-11T08:40:34.270Z,543.00
2023-02-11T08:41:34.258Z,570.00
2023-02-11T08:42:34.276Z,632.00
2023-02-11T08:43:34.244Z,655.00
2023-02-11T08:44:34.397Z,607.00
2023-02-11T08:45:34.379Z,657.00
2023-02-11T08:46:34.267Z,665.00
2023-02-11T08:47:34.219Z,621.00
2023-02-11T08:48:34.172Z,685.00
2023-02-11T08:49:34.178Z,663.00
2023-02-11T08:50:34.163Z,560.00
2023-02-11T08:51:34.157Z,601.00
2023-02-11T08:52:34.129Z,607.00
2023-02-11T08:53:34.143Z,574.00
2023-02-11T08:54:34.254Z,555.00
2023-02-11T08:55:34.290Z,573.00
2023-02-11T08:56:34.099Z,640.00
2023-02-11T08:57:34.075Z,656.00
2023-02-11T08:58:34.071Z,633.00
2023-02-11T08:59:34.081Z,666.00
2023-02-11T09:00:34.045Z,727.00
2023-02-11T09:01:34.192Z,669.00
2023-02-11T09:02:34.157Z,636.00
2023-02-11T09:03:34.071Z,720.00
2023-02-11T09:04:34.078Z,799.00
2023-02-11T09:05:34.114Z,865.00
2023-02-11T09:06:34.043Z,899.00
2023-02-11T09:07:34.093Z,916.00
2023-02-11T09:08:34.139Z,819.00
2023-02-11T09:09:34.048Z,808.00
2023-02-11T09:10:33.930Z,701.00
2023-02-11T09:11:33.932Z,783.00
2023-02-11T09:12:33.953Z,769.00
2023-02-11T09:13:33.902Z,778.00
2023-02-11T09:14:33.902Z,720.00
2023-02-11T09:15:33.896Z,685.00
2023-02-11T09:16:33.986Z,691.00
2023-02-11T09:17:33.913Z,673.00
2023-02-11T09:18:33.840Z,840.00
2023-02-11T09:19:33.941Z,832.00
2023-02-11T09:20:33.838Z,892.00
2023-02-11T09:21:33.832Z,802.00
2023-02-11T09:22:33.941Z,880.00
2023-02-11T09:23:33.806Z,856.00
2023-02-11T09:24:33.820Z,792.00
2023-02-11T09:25:33.969Z,809.00
2023-02-11T09:26:33.766Z,734.00
2023-02-11T09:27:33.787Z,748.00
2023-02-11T09:28:33.825Z,790.00
2023-02-11T09:29:33.757Z,687.00
2023-02-11T09:30:33.892Z,705.00
2023-02-11T09:31:34.126Z,777.00
2023-02-11T09:32:33.723Z,708.00
2023-02-11T09:33:33.776Z,704.00
2023-02-11T09:34:33.825Z,588.00
2023-02-11T09:35:33.678Z,686.00
2023-02-11T09:36:33.774Z,679.00
2023-02-11T09:37:36.290Z,678.00
2023-02-11T09:38:33.641Z,727.00
2023-02-11T09:39:33.644Z,704.00
2023-02-11T09:40:33.689Z,757.00
2023-02-11T09:41:33.717Z,720.00
2023-02-11T09:42:33.615Z,780.00
2023-02-11T09:43:33.597Z,756.00
2023-02-11T09:44:33.572Z,821.00
2023-02-11T09:45:33.616Z,767.00
2023-02-11T09:46:33.613Z,666.00
2023-02-11T09:47:33.587Z,811.00
2023-02-11T09:48:33.541Z,815.00
2023-02-11T09:49:33.517Z,914.00
2023-02-11T09:50:33.515Z,800.00
2023-02-11T09:51:33.560Z,775.00
2023-02-11T09:52:33.485Z,792.00
2023-02-11T09:53:33.527Z,816.00
2023-02-11T09:54:33.468Z,817.00
2023-02-11T09:55:33.463Z,829.00
2023-02-11T09:56:33.471Z,892.00
2023-02-11T09:57:33.492Z,903.00
2023-02-11T09:58:33.466Z,876.00
2023-02-11T09:59:33.429Z,903.00
2023-02-11T10:00:33.430Z,837.00
2023-02-11T10:01:33.468Z,828.00
2023-02-11T10:02:33.385Z,772.00
2023-02-11T10:03:33.400Z,827.00
2023-02-11T10:04:33.414Z,875.00
2023-02-11T10:05:33.365Z,831.00
2023-02-11T10:06:33.364Z,797.00
2023-02-11T10:07:33.351Z,711.00
2023-02-11T10:08:33.318Z,761.00
2023-02-11T10:09:33.335Z,852.00
2023-02-11T10:10:33.305Z,776.00
2023-02-11T10:11:33.301Z,630.00
2023-02-11T10:12:33.319Z,557.00
2023-02-11T10:13:33.297Z,635.00
2023-02-11T10:14:33.329Z,721.00
2023-02-11T10:15:33.388Z,820.00
2023-02-11T10:16:33.455Z,745.00
2023-02-11T10:17:33.256Z,656.00
2023-02-11T10:18:33.218Z,686.00
2023-02-11T10:19:33.257Z,745.00
2023-02-11T10:20:33.241Z,806.00
2023-02-11T10:21:33.185Z,767.00
2023-02-11T10:22:33.190Z,740.00
2023-02-11T10:23:33.154Z,673.00
2023-02-11T10:24:33.175Z,837.00
2023-02-11T10:25:33.243Z,949.00
2023-02-11T10:26:33.158Z,949.00
2023-02-11T10:27:33.171Z,858.00
2023-02-11T10:28:33.212Z,921.00
2023-02-11T10:29:33.205Z,924.00
2023-02-11T10:30:33.123Z,930.00
2023-02-11T10:31:33.153Z,837.00
2023-02-11T10:32:33.064Z,847.00
2023-02-11T10:33:33.158Z,886.00
2023-02-11T10:34:33.062Z,891.00
2023-02-11T10:35:33.106Z,931.00
2023-02-11T10:36:33.035Z,983.00
2023-02-11T10:37:33.248Z,824.00
2023-02-11T10:38:33.015Z,729.00
2023-02-11T10:39:33.004Z,793.00
2023-02-11T10:40:33.499Z,697.00
2023-02-11T10:41:32.976Z,806.00
2023-02-11T10:42:32.975Z,956.00
2023-02-11T10:43:32.955Z,839.00
2023-02-11T10:44:33.485Z,750.00
2023-02-11T10:45:32.941Z,688.00
2023-02-11T10:46:32.989Z,787.00
2023-02-11T10:47:33.074Z,876.00
2023-02-11T10:48:32.903Z,769.00
2023-02-11T10:49:32.962Z,710.00
2023-02-11T10:50:32.904Z,719.00
2023-02-11T10:51:32.862Z,839.00
2023-02-11T10:52:32.859Z,819.00
2023-02-11T10:53:32.847Z,838.00
2023-02-11T10:54:32.881Z,826.00
2023-02-11T10:55:32.834Z,873.00
2023-02-11T10:56:32.829Z,932.00
2023-02-11T10:57:32.809Z,937.00
2023-02-11T10:58:32.811Z,929.00
2023-02-11T10:59:32.766Z,932.00
2023-02-11T11:00:32.791Z,908.00
2023-02-11T11:01:32.787Z,910.00
2023-02-11T11:02:32.901Z,900.00
2023-02-11T11:03:32.782Z,736.00
2023-02-11T11:04:32.758Z,810.00
2023-02-11T11:05:32.740Z,847.00
2023-02-11T11:06:32.741Z,854.00
2023-02-11T11:07:32.700Z,926.00
2023-02-11T11:08:32.697Z,970.00
2023-02-11T11:09:32.712Z,950.00
2023-02-11T11:10:32.706Z,883.00
2023-02-11T11:11:32.652Z,1014.00
2023-02-11T11:12:32.641Z,862.00
2023-02-11T11:13:32.689Z,854.00
2023-02-11T11:14:32.639Z,941.00
2023-02-11T11:15:32.598Z,1048.00
2023-02-11T11:16:32.614Z,919.00
2023-02-11T11:17:32.721Z,1052.00
2023-02-11T11:18:32.604Z,1251.00
2023-02-11T11:19:32.568Z,1187.00
2023-02-11T11:20:32.604Z,1209.00
2023-02-11T11:21:32.784Z,1166.00
2023-02-11T11:22:32.672Z,1188.00
2023-02-11T11:23:32.537Z,1123.00
2023-02-11T11:24:32.549Z,1219.00
2023-02-11T11:25:32.496Z,1162.00
2023-02-11T11:26:32.598Z,1008.00
2023-02-11T11:27:32.517Z,935.00
2023-02-11T11:28:32.554Z,1107.00
2023-02-11T11:29:32.693Z,1226.00
2023-02-11T11:30:32.522Z,1221.00
2023-02-11T11:31:32.970Z,1250.00
2023-02-11T11:32:32.479Z,1037.00
2023-02-11T11:33:32.431Z,917.00
2023-02-11T11:34:32.538Z,1088.00
2023-02-11T11:35:32.389Z,1067.00
2023-02-11T11:36:32.550Z,1012.00
2023-02-11T11:37:32.382Z,993.00
2023-02-11T11:38:32.379Z,1012.00
2023-02-11T11:39:32.351Z,1119.00
2023-02-11T11:40:32.385Z,1087.00
2023-02-11T11:41:32.614Z,1160.00
2023-02-11T11:42:32.568Z,1079.00
2023-02-11T11:43:32.386Z,1111.00
2023-02-11T11:44:32.324Z,1297.00
2023-02-11T11:45:32.569Z,1011.00
2023-02-11T11:46:32.410Z,1098.00
2023-02-11T11:47:32.271Z,940.00
2023-02-11T11:48:32.279Z,920.00
2023-02-11T11:49:32.334Z,804.00
2023-02-11T11:50:32.342Z,778.00
2023-02-11T11:51:32.397Z,867.00
2023-02-11T11:52:32.227Z,1065.00
2023-02-11T11:53:32.215Z,1104.00
2023-02-11T11:54:32.203Z,1105.00
2023-02-11T11:55:32.182Z,1128.00
2023-02-11T11:56:32.241Z,957.00
2023-02-11T11:57:32.244Z,858.00
2023-02-11T11:58:32.192Z,857.00
2023-02-11T11:59:32.238Z,768.00
2023-02-11T12:00:32.210Z,875.00
2023-02-11T12:01:32.162Z,1051.00
2023-02-11T12:02:32.160Z,1001.00
2023-02-11T12:03:32.097Z,970.00
2023-02-11T12:04:32.111Z,893.00
2023-02-11T12:05:32.108Z,960.00
2023-02-11T12:06:32.075Z,1032.00
2023-02-11T12:07:32.044Z,1076.00
2023-02-11T12:08:32.233Z,989.00
2023-02-11T12:09:32.089Z,887.00
2023-02-11T12:10:32.043Z,1084.00
2023-02-11T12:11:32.054Z,1106.00
2023-02-11T12:12:32.005Z,1107.00
2023-02-11T12:13:32.018Z,1163.00
2023-02-11T12:14:31.977Z,931.00
2023-02-11T12:15:31.963Z,886.00
2023-02-11T12:16:32.089Z,1040.00
2023-02-11T12:17:31.997Z,996.00
2023-02-11T12:18:32.112Z,878.00
2023-02-11T12:19:32.084Z,703.00
2023-02-11T12:20:32.094Z,791.00
2023-02-11T12:21:31.897Z,888.00
2023-02-11T12:22:31.903Z,978.00
2023-02-11T12:23:32.116Z,944.00
2023-02-11T12:24:31.903Z,995.00
2023-02-11T12:25:31.905Z,1074.00
2023-02-11T12:26:31.853Z,1246.00
2023-02-11T12:27:31.830Z,1400.00
2023-02-11T12:28:31.878Z,1728.00
2023-02-11T12:29:31.817Z,1899.00
2023-02-11T12:30:32.002Z,1658.00
2023-02-11T12:31:31.888Z,1634.00
2023-02-11T12:32:31.802Z,1023.00
2023-02-11T12:33:31.839Z,1522.00
2023-02-11T12:34:31.859Z,1295.00
2023-02-11T12:35:31.782Z,1278.00
2023-02-11T12:36:31.853Z,1240.00
2023-02-11T12:37:31.890Z,1116.00
2023-02-11T12:38:31.778Z,1459.00
2023-02-11T12:39:31.860Z,1342.00
2023-02-11T12:40:31.700Z,1234.00
2023-02-11T12:41:31.826Z,1863.00
2023-02-11T12:42:31.753Z,1988.00
2023-02-11T12:43:31.657Z,1886.00
2023-02-11T12:44:31.671Z,2233.00
2023-02-11T12:45:31.682Z,1623.00
2023-02-11T12:46:31.658Z,1560.00
2023-02-11T12:47:31.622Z,1606.00
2023-02-11T12:48:33.604Z,1273.00
2023-02-11T12:49:31.617Z,1267.00
2023-02-11T12:50:31.722Z,1367.00
2023-02-11T12:51:31.572Z,1721.00
2023-02-11T12:52:31.743Z,1256.00
2023-02-11T12:53:31.554Z,1817.00